Time;durP1;ratioP1;P1;durP2;ratioP2;P2;SDS_P1;SDS_P2;PMS_P1;PMS_P2;Temp;Humidity;BMP_temperature;BMP_pressure;BME280_temperature;BME280_humidity;BME280_pressure;Samples;Min_cycle;Max_cycle;Signal;HPM_P1;HPM_P2
2023/02/26 00:01:30;;;;;;;0.10;0.00;;;;;;;7.53;69.54;98959.66;5064056;28;20484;-70
2023/02/26 00:04:01;;;;;;;0.10;0.00;;;;;;;7.48;67.87;98960.16;5057728;28;20036;-69
2023/02/26 00:06:28;;;;;;;0.95;0.10;;;;;;;7.45;68.54;98967.44;5066686;28;20032;-70
2023/02/26 00:08:53;;;;;;;0.45;0.00;;;;;;;7.44;69.36;98963.22;5058852;28;20039;-70
2023/02/26 00:11:20;;;;;;;0.30;0.00;;;;;;;7.44;67.99;98983.94;5060606;28;20071;-70
2023/02/26 00:13:45;;;;;;;0.20;0.00;;;;;;;7.43;67.71;98990.09;5063192;28;20460;-70
2023/02/26 00:16:33;;;;;;;0.10;0.00;;;;;;;7.40;64.82;98988.63;5065754;28;20028;-70
2023/02/26 00:19:02;;;;;;;0.68;0.00;;;;;;;7.33;68.03;98978.09;5063663;28;20045;-69
2023/02/26 00:21:28;;;;;;;0.52;0.00;;;;;;;7.32;68.01;98981.66;5059256;28;20038;-71
2023/02/26 00:23:55;;;;;;;0.32;0.00;;;;;;;7.30;67.16;98977.59;5060296;28;20063;-70
2023/02/26 00:26:22;;;;;;;0.03;0.00;;;;;;;7.30;67.24;98977.59;5061117;28;20060;-71
2023/02/26 00:28:48;;;;;;;0.88;0.00;;;;;;;7.26;66.47;99004.78;5067230;28;20036;-70
2023/02/26 00:31:16;;;;;;;0.00;0.00;;;;;;;7.29;67.25;98996.72;5063916;28;20057;-70
2023/02/26 00:33:43;;;;;;;1.25;0.00;;;;;;;7.28;66.80;99010.63;5064536;28;20111;-70
2023/02/26 00:36:18;;;;;;;0.03;0.00;;;;;;;7.22;65.68;99008.66;5058748;28;20130;-70
2023/02/26 00:38:53;;;;;;;0.10;0.00;;;;;;;7.25;66.63;99016.94;5059905;28;20097;-70
2023/02/26 00:41:19;;;;;;;0.90;0.00;;;;;;;7.22;67.17;99013.84;5060183;28;20028;-70
2023/02/26 00:43:45;;;;;;;0.00;0.00;;;;;;;7.18;67.05;99026.31;5048641;28;20024;-70
2023/02/26 00:46:31;;;;;;;0.20;0.00;;;;;;;7.11;63.99;99027.09;5063900;28;20388;-70
2023/02/26 00:48:59;;;;;;;0.00;0.00;;;;;;;7.08;67.22;99020.47;5057328;28;20467;-70
2023/02/26 00:51:43;;;;;;;0.30;0.00;;;;;;;7.03;65.23;99019.31;5047622;28;20073;-70
2023/02/26 00:54:17;;;;;;;0.20;0.00;;;;;;;6.98;66.28;99002.47;5065185;28;20416;-70
2023/02/26 00:56:43;;;;;;;0.00;0.00;;;;;;;6.92;66.62;99013.44;5055365;28;20063;-70
2023/02/26 00:59:08;;;;;;;0.10;0.00;;;;;;;6.88;65.93;99009.53;5062204;28;20064;-71
2023/02/26 01:01:34;;;;;;;0.40;0.00;;;;;;;6.90;65.84;99001.63;5056471;28;20129;-71
2023/02/26 01:03:59;;;;;;;0.00;0.00;;;;;;;6.78;66.06;99013.22;5062761;28;20025;-70
2023/02/26 01:06:29;;;;;;;6.00;0.00;;;;;;;6.74;62.57;99001.56;5065925;28;20035;-70
2023/02/26 01:09:06;;;;;;;1.10;0.00;;;;;;;6.81;65.20;98977.47;5065651;28;20115;-70
2023/02/26 01:11:34;;;;;;;0.35;0.00;;;;;;;6.79;64.34;98979.41;5061824;28;20647;-70
2023/02/26 01:14:01;;;;;;;0.80;0.00;;;;;;;6.76;65.33;99005.59;5066813;28;20467;-70
2023/02/26 01:16:30;;;;;;;0.00;0.00;;;;;;;6.77;64.39;99015.00;5062708;28;20040;-70
2023/02/26 01:19:00;;;;;;;4.88;0.00;;;;;;;6.77;62.10;99030.53;5042735;28;20184;-70
2023/02/26 01:21:32;;;;;;;0.32;0.00;;;;;;;6.73;60.97;99016.28;5068647;28;20051;-70
2023/02/26 01:24:02;;;;;;;1.80;0.00;;;;;;;6.75;60.67;99011.75;5065620;28;20139;-70
2023/02/26 01:26:28;;;;;;;0.00;0.00;;;;;;;6.70;62.95;98995.06;5072323;28;20059;-70
2023/02/26 01:28:54;;;;;;;0.15;0.00;;;;;;;6.73;61.78;99018.84;5067965;28;20029;-70
2023/02/26 01:31:44;;;;;;;0.82;0.40;;;;;;;6.71;61.49;99030.34;5068346;28;20478;-70
2023/02/26 01:34:23;;;;;;;0.60;0.00;;;;;;;6.66;59.91;99031.59;5064996;28;20045;-70
2023/02/26 01:37:01;;;;;;;0.10;0.00;;;;;;;6.63;60.32;99029.31;5070077;28;20032;-71
2023/02/26 01:39:35;;;;;;;0.00;0.00;;;;;;;6.59;61.44;99022.88;5070138;28;20041;-71
2023/02/26 01:42:24;;;;;;;0.00;0.00;;;;;;;6.60;60.26;99037.44;5065754;28;20032;-71
2023/02/26 01:45:02;;;;;;;3.53;0.00;;;;;;;6.56;60.78;99061.16;5066431;28;20439;-70
2023/02/26 01:47:39;;;;;;;0.00;0.00;;;;;;;6.59;61.23;99016.88;5066576;28;20036;-70
2023/02/26 01:50:14;;;;;;;2.08;0.00;;;;;;;6.55;59.14;99056.97;5068609;28;20035;-70
2023/02/26 01:52:48;;;;;;;0.08;0.00;;;;;;;6.48;61.66;99072.28;5064127;28;20029;-70
2023/02/26 01:55:22;;;;;;;0.40;0.00;;;;;;;6.48;61.27;99067.09;5065787;28;20036;-70
2023/02/26 01:57:51;;;;;;;0.22;0.00;;;;;;;6.47;61.96;99067.25;5063429;28;20119;-70
2023/02/26 02:00:17;;;;;;;2.47;0.00;;;;;;;6.50;62.46;99074.72;5065916;28;20044;-70
2023/02/26 02:02:43;;;;;;;0.38;0.00;;;;;;;6.49;62.35;99079.09;5064962;28;20091;-70
2023/02/26 02:05:27;;;;;;;0.00;0.00;;;;;;;6.45;57.94;99061.41;5066378;28;20032;-70
2023/02/26 02:07:52;;;;;;;1.50;0.00;;;;;;;6.44;61.05;99098.59;5067843;28;20553;-70
2023/02/26 02:10:18;;;;;;;0.00;0.00;;;;;;;6.44;60.84;99093.44;5067104;28;20114;-70
2023/02/26 02:12:52;;;;;;;2.65;0.25;;;;;;;6.41;60.28;99058.31;5065942;28;20100;-71
2023/02/26 02:15:46;;;;;;;0.00;0.00;;;;;;;6.45;59.48;99074.34;5059886;28;20028;-70
2023/02/26 02:18:25;;;;;;;0.00;0.00;;;;;;;6.43;59.37;99071.09;5064111;28;20036;-70
2023/02/26 02:21:14;;;;;;;1.60;0.00;;;;;;;6.32;58.34;99091.09;5066572;28;20042;-71
2023/02/26 02:23:51;;;;;;;0.10;0.00;;;;;;;6.32;60.74;99079.91;5063999;28;20032;-70
2023/02/26 02:26:48;;;;;;;0.13;0.00;;;;;;;6.34;58.70;99067.66;5059808;28;20060;-71
2023/02/26 02:29:44;;;;;;;0.00;0.00;;;;;;;6.31;56.85;99058.41;5037206;28;20071;-70
2023/02/26 02:32:17;;;;;;;0.00;0.00;;;;;;;6.35;57.27;99077.03;5063607;28;20053;-70
2023/02/26 02:34:53;;;;;;;0.00;0.00;;;;;;;6.32;57.98;99060.03;5059284;28;20353;-71
2023/02/26 02:37:37;;;;;;;;;;;;;;;6.29;56.76;99044.00;5066232;28;20463;-71
2023/02/26 02:40:11;;;;;;;2.15;0.30;;;;;;;6.33;55.74;99069.44;5065955;28;19920;-70
2023/02/26 02:42:53;;;;;;;0.85;0.10;;;;;;;6.36;56.69;99070.09;5064892;28;20020;-71
2023/02/26 02:45:25;;;;;;;2.38;0.00;;;;;;;6.32;56.23;99029.00;5063849;28;20040;-71
2023/02/26 02:48:01;;;;;;;1.05;0.00;;;;;;;6.37;56.28;99038.91;5067255;28;20029;-71
2023/02/26 02:50:56;;;;;;;0.00;0.00;;;;;;;6.27;56.83;99049.34;5066654;28;20037;-71
2023/02/26 02:53:32;;;;;;;3.92;0.00;;;;;;;6.28;56.93;99063.88;5057170;28;20054;-72
2023/02/26 02:56:08;;;;;;;2.10;0.00;;;;;;;6.27;55.92;99056.28;5067698;28;20037;-72
2023/02/26 02:58:39;;;;;;;0.57;0.00;;;;;;;6.29;57.19;99068.09;5064240;28;20051;-71
2023/02/26 03:01:08;;;;;;;0.15;0.00;;;;;;;6.30;57.42;99048.22;5066729;28;20028;-70
2023/02/26 03:04:00;;;;;;;0.50;0.00;;;;;;;6.31;55.63;99047.25;5066040;28;20032;-70
2023/02/26 03:06:26;;;;;;;2.30;0.00;;;;;;;6.31;56.14;99066.19;5065499;28;20382;-71
2023/02/26 03:08:52;;;;;;;0.05;0.00;;;;;;;6.24;57.11;99046.22;5057738;28;20042;-71
2023/02/26 03:11:19;;;;;;;0.30;0.00;;;;;;;6.21;58.05;99070.63;5065241;28;20131;-71
2023/02/26 03:13:45;;;;;;;1.75;0.00;;;;;;;6.24;57.39;99135.00;5065004;28;20029;-70
2023/02/26 03:16:44;;;;;;;0.00;0.00;;;;;;;6.14;59.53;99154.97;5060986;28;20090;-71
2023/02/26 03:19:39;;;;;;;0.00;0.00;;;;;;;6.10;59.31;99171.72;5065719;28;20049;-70
2023/02/26 03:22:21;;;;;;;0.00;0.00;;;;;;;6.11;61.26;99132.00;5062286;28;20032;-71
2023/02/26 03:25:03;;;;;;;0.00;0.00;;;;;;;6.09;59.17;99143.44;5064717;28;20028;-71
2023/02/26 03:27:50;;;;;;;2.42;0.00;;;;;;;6.23;57.52;99164.41;5064825;28;20481;-71
2023/02/26 03:30:39;;;;;;;0.10;0.00;;;;;;;6.24;58.58;99145.34;5059639;28;20035;-71
2023/02/26 03:33:09;;;;;;;0.10;0.00;;;;;;;6.20;60.42;99122.50;5062749;28;20430;-71
2023/02/26 03:35:49;;;;;;;0.00;0.00;;;;;;;6.18;61.18;99124.41;5055965;28;20124;-71
2023/02/26 03:38:24;;;;;;;2.08;0.00;;;;;;;6.14;61.73;99139.44;5066326;28;20050;-71
2023/02/26 03:40:58;;;;;;;0.20;0.00;;;;;;;6.12;60.66;99138.78;5064114;28;20052;-71
2023/02/26 03:43:34;;;;;;;0.20;0.00;;;;;;;6.16;59.31;99134.09;5063058;28;20151;-71
2023/02/26 03:46:10;;;;;;;0.20;0.00;;;;;;;6.22;57.98;99112.81;5064050;28;20464;-71
2023/02/26 03:48:36;;;;;;;0.00;0.00;;;;;;;6.22;59.94;99155.00;5062979;28;20056;-71
2023/02/26 03:51:13;;;;;;;0.00;0.00;;;;;;;6.27;56.41;99136.47;5063577;28;20117;-71
2023/02/26 03:53:50;;;;;;;0.93;0.00;;;;;;;6.35;59.67;99159.81;5062880;28;20020;-70
2023/02/26 03:56:33;;;;;;;0.08;0.00;;;;;;;6.31;59.12;99171.41;5067680;28;20037;-71
2023/02/26 03:58:59;;;;;;;0.00;0.00;;;;;;;6.26;59.06;99164.09;5066586;28;20035;-71
2023/02/26 04:01:32;;;;;;;0.00;0.00;;;;;;;6.16;59.94;99153.00;5060337;28;20032;-71
2023/02/26 04:04:09;;;;;;;0.10;0.00;;;;;;;6.12;59.38;99166.41;5064279;28;20021;-70
2023/02/26 04:06:35;;;;;;;1.20;0.00;;;;;;;6.14;59.32;99191.16;5062100;28;20025;-71
2023/02/26 04:09:02;;;;;;;0.20;0.00;;;;;;;6.16;59.68;99178.88;5064273;28;20510;-72
2023/02/26 04:11:29;;;;;;;0.10;0.00;;;;;;;6.16;57.37;99209.91;5065346;28;20041;-70
2023/02/26 04:13:55;;;;;;;0.63;0.00;;;;;;;6.12;57.47;99238.81;5062640;28;20055;-70
2023/02/26 04:16:21;;;;;;;0.00;0.00;;;;;;;6.15;58.92;99221.22;5065071;28;20060;-70
2023/02/26 04:18:46;;;;;;;2.50;0.00;;;;;;;6.17;57.85;99215.91;5061378;28;20032;-71
2023/02/26 04:21:19;;;;;;;0.10;0.00;;;;;;;6.15;58.76;99212.66;5061879;28;20090;-70
2023/02/26 04:23:44;;;;;;;0.10;0.00;;;;;;;6.15;59.75;99231.56;5048183;28;20127;-71
2023/02/26 04:26:12;;;;;;;0.10;0.00;;;;;;;6.16;60.61;99233.19;5060586;28;20487;-70
2023/02/26 04:28:37;;;;;;;0.00;0.00;;;;;;;6.10;59.29;99210.53;5070105;28;20502;-71
2023/02/26 04:31:07;;;;;;;0.25;0.00;;;;;;;6.13;56.96;99188.72;5051314;28;20040;-71
2023/02/26 04:33:33;;;;;;;0.20;0.00;;;;;;;6.18;57.44;99197.66;5062037;28;20365;-70
2023/02/26 04:35:59;;;;;;;0.47;0.00;;;;;;;6.25;55.19;99187.53;5062404;28;20035;-71
2023/02/26 04:38:25;;;;;;;0.00;0.00;;;;;;;6.26;55.69;99207.25;5067143;28;20024;-71
2023/02/26 04:40:51;;;;;;;0.00;0.00;;;;;;;6.19;56.58;99152.72;5062954;28;20042;-71
2023/02/26 04:43:16;;;;;;;1.30;0.00;;;;;;;6.07;57.07;99192.72;5055587;28;20687;-71
2023/02/26 04:45:45;;;;;;;0.10;0.00;;;;;;;6.02;57.47;99189.75;5062409;28;20034;-71
2023/02/26 04:48:11;;;;;;;2.67;0.00;;;;;;;6.06;57.26;99188.50;5065563;28;20418;-71
2023/02/26 04:50:37;;;;;;;0.00;0.00;;;;;;;6.09;57.47;99211.47;5063583;28;20028;-71
2023/02/26 04:53:02;;;;;;;0.00;0.00;;;;;;;5.96;58.09;99203.25;5062200;28;20020;-71
2023/02/26 04:55:27;;;;;;;0.00;0.00;;;;;;;5.93;58.29;99164.78;5059806;28;20044;-71
2023/02/26 04:57:53;;;;;;;6.50;0.00;;;;;;;5.94;58.38;99176.75;5066041;28;20024;-71
2023/02/26 05:00:19;;;;;;;0.52;0.00;;;;;;;5.87;59.10;99196.34;5065796;28;20427;-71
2023/02/26 05:02:44;;;;;;;0.00;0.00;;;;;;;5.91;59.05;99215.81;5061873;28;20037;-71
2023/02/26 05:05:10;;;;;;;0.00;0.00;;;;;;;5.91;58.49;99211.44;5065409;28;20024;-71
2023/02/26 05:07:35;;;;;;;0.00;0.00;;;;;;;5.93;59.49;99213.88;5059337;28;20402;-72
2023/02/26 05:10:01;;;;;;;0.00;0.00;;;;;;;6.03;59.46;99260.38;5061614;28;20052;-71
2023/02/26 05:12:26;;;;;;;0.00;0.00;;;;;;;6.04;59.29;99255.06;5064892;28;20134;-71
2023/02/26 05:14:52;;;;;;;0.00;0.00;;;;;;;6.04;59.24;99265.41;5059010;28;20033;-71
2023/02/26 05:17:17;;;;;;;0.00;0.00;;;;;;;6.00;58.90;99271.81;5055837;28;20045;-71
2023/02/26 05:19:42;;;;;;;0.00;0.00;;;;;;;5.89;59.32;99300.44;5063115;28;20031;-71
2023/02/26 05:22:08;;;;;;;0.10;0.00;;;;;;;5.75;60.16;99283.59;5064664;28;20135;-71
2023/02/26 05:24:34;;;;;;;0.00;0.00;;;;;;;5.73;59.59;99287.28;5064808;28;20123;-71
2023/02/26 05:26:59;;;;;;;0.00;0.00;;;;;;;5.68;60.85;99291.09;5062907;28;20040;-71
2023/02/26 05:29:25;;;;;;;0.00;0.00;;;;;;;5.72;60.84;99277.91;5064234;28;20037;-71
2023/02/26 05:31:50;;;;;;;0.10;0.00;;;;;;;5.66;60.69;99285.28;5060292;28;20444;-71
2023/02/26 05:34:15;;;;;;;0.47;0.00;;;;;;;5.67;61.15;99299.81;5059902;28;20104;-71
2023/02/26 05:36:41;;;;;;;0.38;0.00;;;;;;;5.66;60.55;99307.72;5056717;28;20064;-71
2023/02/26 05:39:08;;;;;;;0.10;0.00;;;;;;;5.63;60.93;99332.06;5057871;28;20025;-70
2023/02/26 05:41:34;;;;;;;0.00;0.00;;;;;;;5.63;60.96;99277.81;5059806;28;20037;-70
2023/02/26 05:43:59;;;;;;;1.60;0.00;;;;;;;5.61;60.89;99295.22;5060186;28;20059;-71
2023/02/26 05:46:25;;;;;;;0.00;0.00;;;;;;;5.51;60.71;99271.19;5061154;28;20025;-71
2023/02/26 05:48:50;;;;;;;0.03;0.00;;;;;;;5.43;60.47;99294.31;5063247;28;20468;-71
2023/02/26 05:51:16;;;;;;;0.00;0.00;;;;;;;5.38;60.83;99293.09;5064439;28;20052;-71
2023/02/26 05:53:41;;;;;;;0.32;0.10;;;;;;;5.35;61.80;99263.22;5046223;28;20016;-70
2023/02/26 05:56:06;;;;;;;0.98;0.00;;;;;;;5.36;60.53;99267.41;5059162;28;20552;-70
2023/02/26 05:58:32;;;;;;;0.00;0.00;;;;;;;5.34;60.39;99264.16;5061149;28;20044;-70
2023/02/26 06:00:59;;;;;;;0.00;0.00;;;;;;;5.37;59.90;99257.91;5060320;28;20075;-71
2023/02/26 06:03:24;;;;;;;0.00;0.00;;;;;;;5.38;60.39;99249.19;5059814;28;20111;-71
2023/02/26 06:05:50;;;;;;;0.20;0.10;;;;;;;5.38;59.25;99221.59;5064025;28;20123;-70
2023/02/26 06:08:16;;;;;;;0.00;0.00;;;;;;;5.38;58.72;99224.19;5064276;28;20139;-70
2023/02/26 06:10:42;;;;;;;0.20;0.00;;;;;;;5.39;58.12;99230.97;5065237;28;20029;-71
2023/02/26 06:13:07;;;;;;;0.00;0.00;;;;;;;5.43;57.92;99265.91;5061830;28;20029;-71
2023/02/26 06:15:33;;;;;;;0.00;0.00;;;;;;;5.40;57.48;99248.09;5060199;28;20544;-70
2023/02/26 06:17:58;;;;;;;0.85;0.00;;;;;;;5.27;58.69;99234.69;5059002;28;20044;-72
2023/02/26 06:20:23;;;;;;;0.03;0.00;;;;;;;5.34;57.21;99259.81;5064674;28;20158;-71
2023/02/26 06:22:49;;;;;;;0.00;0.00;;;;;;;5.30;57.55;99280.88;5061553;28;20036;-72
2023/02/26 06:25:15;;;;;;;0.00;0.00;;;;;;;5.20;58.28;99308.53;5062036;28;20393;-72
2023/02/26 06:27:40;;;;;;;1.80;0.00;;;;;;;5.12;58.87;99291.13;5065793;28;20483;-71
2023/02/26 06:30:06;;;;;;;0.00;0.00;;;;;;;5.09;59.64;99278.50;5065866;28;20122;-71
2023/02/26 06:32:32;;;;;;;0.45;0.00;;;;;;;5.11;58.86;99366.16;5059374;28;20045;-70
2023/02/26 06:34:58;;;;;;;0.10;0.00;;;;;;;5.16;58.11;99326.06;5057997;28;20031;-71
2023/02/26 06:37:23;;;;;;;0.08;0.00;;;;;;;5.16;57.91;99353.66;5062656;28;20044;-71
2023/02/26 06:39:49;;;;;;;0.08;0.00;;;;;;;5.07;58.77;99302.81;5060742;28;20147;-70
2023/02/26 06:42:14;;;;;;;0.17;0.00;;;;;;;5.02;59.00;99330.81;5060138;28;20037;-70
2023/02/26 06:44:39;;;;;;;0.25;0.00;;;;;;;5.01;59.86;99332.59;5048817;28;20064;-71
2023/02/26 06:47:05;;;;;;;0.10;0.00;;;;;;;5.05;59.39;99366.69;5066664;28;20028;-71
2023/02/26 06:49:31;;;;;;;0.00;0.00;;;;;;;5.08;60.06;99361.25;5065446;28;20082;-71
2023/02/26 06:51:56;;;;;;;1.02;0.05;;;;;;;5.19;57.35;99402.44;5063635;28;20039;-70
2023/02/26 06:54:21;;;;;;;0.00;0.00;;;;;;;5.12;58.30;99370.38;5058682;28;20103;-70
2023/02/26 06:56:47;;;;;;;0.10;0.00;;;;;;;5.13;59.19;99383.13;5059803;28;20378;-70
2023/02/26 06:59:14;;;;;;;0.00;0.00;;;;;;;5.12;59.98;99360.03;5062147;28;20028;-71
2023/02/26 07:01:40;;;;;;;0.10;0.00;;;;;;;5.19;58.97;99363.69;5056819;28;20493;-70
2023/02/26 07:04:05;;;;;;;0.30;0.00;;;;;;;5.16;57.56;99351.88;5060612;28;20044;-70
2023/02/26 07:06:31;;;;;;;0.00;0.00;;;;;;;5.15;57.58;99352.84;5057660;28;20064;-70
2023/02/26 07:08:56;;;;;;;0.10;0.00;;;;;;;5.21;57.19;99352.25;5053917;28;20115;-70
2023/02/26 07:11:23;;;;;;;0.20;0.00;;;;;;;5.15;57.99;99365.75;5064757;28;20408;-71
2023/02/26 07:13:50;;;;;;;1.20;0.00;;;;;;;5.18;56.72;99387.91;5061102;28;20098;-70
2023/02/26 07:16:15;;;;;;;0.25;0.00;;;;;;;5.21;56.12;99365.16;5063368;28;20141;-71
2023/02/26 07:18:41;;;;;;;0.10;0.00;;;;;;;5.21;57.32;99387.59;5053416;28;20032;-70
2023/02/26 07:21:07;;;;;;;0.00;0.00;;;;;;;5.16;58.02;99397.53;5055067;28;20124;-71
2023/02/26 07:23:32;;;;;;;0.80;0.00;;;;;;;5.12;58.24;99432.31;5058786;28;20079;-71
2023/02/26 07:25:57;;;;;;;0.10;0.00;;;;;;;5.04;58.30;99398.63;5055731;28;20055;-71
2023/02/26 07:28:24;;;;;;;0.05;0.00;;;;;;;5.00;58.24;99447.13;5063809;28;20423;-70
2023/02/26 07:30:49;;;;;;;0.40;0.00;;;;;;;5.00;58.31;99403.22;5064014;28;20072;-71
2023/02/26 07:33:15;;;;;;;0.00;0.00;;;;;;;4.99;58.56;99399.03;5045045;28;20477;-70
2023/02/26 07:35:41;;;;;;;0.00;0.00;;;;;;;4.94;58.44;99407.16;5057245;28;21429;-70
2023/02/26 07:38:06;;;;;;;0.47;0.00;;;;;;;5.00;57.26;99452.28;5058940;28;20542;-71
2023/02/26 07:40:32;;;;;;;0.00;0.00;;;;;;;4.97;57.57;99442.22;5064288;28;20131;-71
2023/02/26 07:42:58;;;;;;;0.10;0.00;;;;;;;4.94;58.15;99452.81;5060763;28;20032;-71
2023/02/26 07:45:23;;;;;;;0.00;0.00;;;;;;;4.89;58.28;99429.97;5060263;28;20147;-71
2023/02/26 07:47:50;;;;;;;0.00;0.00;;;;;;;4.91;57.84;99419.53;5058379;28;20036;-71
2023/02/26 07:50:16;;;;;;;0.63;0.00;;;;;;;4.93;58.36;99430.53;5066251;28;20480;-71
2023/02/26 07:52:41;;;;;;;0.00;0.00;;;;;;;4.98;57.40;99439.50;5065657;28;20090;-70
2023/02/26 07:55:08;;;;;;;0.43;0.00;;;;;;;4.97;57.88;99427.56;5059352;28;20035;-71
2023/02/26 07:57:34;;;;;;;0.28;0.03;;;;;;;4.96;58.00;99433.66;5058952;28;20031;-70
2023/02/26 08:00:00;;;;;;;0.10;0.00;;;;;;;4.91;58.38;99430.66;5061428;28;20040;-70
2023/02/26 08:02:25;;;;;;;0.63;0.00;;;;;;;4.92;57.87;99416.81;5067822;28;20036;-70
2023/02/26 08:04:51;;;;;;;0.75;0.00;;;;;;;4.89;58.18;99409.34;5059564;28;20044;-70
2023/02/26 08:07:18;;;;;;;0.10;0.00;;;;;;;4.90;57.95;99398.06;5063226;28;20408;-71
2023/02/26 08:09:44;;;;;;;1.90;0.00;;;;;;;5.02;57.63;99434.09;5048874;28;20037;-71
2023/02/26 08:12:10;;;;;;;0.10;0.00;;;;;;;5.09;57.22;99430.00;5058368;28;20048;-70
2023/02/26 08:14:36;;;;;;;0.95;0.00;;;;;;;5.09;57.00;99437.75;5065461;28;20036;-71
2023/02/26 08:17:02;;;;;;;0.30;0.00;;;;;;;5.02;56.94;99450.38;5059397;28;20040;-71
2023/02/26 08:19:28;;;;;;;1.30;0.00;;;;;;;5.07;57.20;99437.06;5055056;28;20476;-73
2023/02/26 08:21:54;;;;;;;0.00;0.00;;;;;;;5.05;57.83;99416.56;5056397;28;20032;-72
2023/02/26 08:24:21;;;;;;;0.10;0.00;;;;;;;5.06;57.55;99427.69;5058692;28;20463;-72
2023/02/26 08:26:47;;;;;;;0.13;0.00;;;;;;;5.10;57.12;99447.13;5062985;28;20028;-72
2023/02/26 08:29:12;;;;;;;0.00;0.00;;;;;;;5.05;57.31;99424.31;5063878;28;20046;-72
2023/02/26 08:31:38;;;;;;;0.20;0.00;;;;;;;5.03;57.82;99430.56;5057529;28;20127;-72
2023/02/26 08:34:04;;;;;;;0.30;0.00;;;;;;;5.11;56.10;99441.03;5059386;28;20472;-72
2023/02/26 08:36:31;;;;;;;1.77;0.00;;;;;;;5.06;56.90;99456.91;5062460;28;20033;-71
2023/02/26 08:38:57;;;;;;;0.10;0.00;;;;;;;5.03;57.33;99451.19;5062722;28;20038;-71
2023/02/26 08:41:23;;;;;;;0.28;0.00;;;;;;;4.99;57.83;99460.97;5054206;28;20111;-71
2023/02/26 08:43:48;;;;;;;0.32;0.00;;;;;;;5.07;57.26;99461.13;5054178;28;20060;-70
2023/02/26 08:46:14;;;;;;;2.67;0.00;;;;;;;5.16;56.35;99456.94;5062026;28;20035;-70
2023/02/26 08:48:39;;;;;;;0.22;0.00;;;;;;;5.08;57.49;99443.88;5060859;28;20041;-71
2023/02/26 08:51:05;;;;;;;1.95;0.10;;;;;;;5.00;57.33;99457.44;5052445;28;20036;-71
2023/02/26 08:53:30;;;;;;;7.55;0.00;;;;;;;4.98;57.61;99461.94;5058129;28;20031;-70
2023/02/26 08:55:56;;;;;;;2.08;0.00;;;;;;;4.89;57.99;99445.47;5057356;28;20146;-70
2023/02/26 08:58:21;;;;;;;0.20;0.00;;;;;;;4.92;58.30;99450.38;5057056;28;20063;-69
2023/02/26 09:00:47;;;;;;;2.67;0.00;;;;;;;5.00;57.05;99504.72;5043949;28;20040;-70
2023/02/26 09:03:12;;;;;;;2.15;0.00;;;;;;;4.98;57.28;99487.75;5055991;28;21207;-70
2023/02/26 09:05:39;;;;;;;0.45;0.00;;;;;;;4.98;57.42;99483.41;5059871;28;20039;-69
2023/02/26 09:08:07;;;;;;;0.32;0.03;;;;;;;4.91;58.02;99499.53;5059259;28;20025;-71
2023/02/26 09:10:33;;;;;;;0.10;0.00;;;;;;;5.00;58.22;99484.06;5054785;28;20032;-68
2023/02/26 09:12:58;;;;;;;0.40;0.00;;;;;;;4.96;57.85;99474.97;5042408;28;20048;-70
2023/02/26 09:15:24;;;;;;;5.63;0.10;;;;;;;4.99;57.75;99476.47;5055924;28;20385;-70
2023/02/26 09:17:50;;;;;;;0.52;0.13;;;;;;;5.00;57.98;99447.94;5056610;28;20081;-71
2023/02/26 09:20:16;;;;;;;0.20;0.00;;;;;;;5.08;56.34;99472.28;5062438;28;20047;-71
2023/02/26 09:22:41;;;;;;;0.30;0.05;;;;;;;5.21;56.60;99485.72;5057397;28;20033;-70
2023/02/26 09:25:07;;;;;;;0.10;0.00;;;;;;;5.20;56.93;99478.97;5059211;28;20256;-71
2023/02/26 09:27:34;;;;;;;0.20;0.00;;;;;;;5.33;55.07;99510.47;5060729;28;20036;-70
2023/02/26 09:29:59;;;;;;;0.10;0.00;;;;;;;5.46;54.44;99459.38;5059769;28;20464;-71
2023/02/26 09:32:25;;;;;;;0.00;0.00;;;;;;;5.42;55.08;99494.19;5058651;28;20056;-71
2023/02/26 09:34:51;;;;;;;0.00;0.00;;;;;;;5.45;54.91;99473.25;5063086;28;20369;-70
2023/02/26 09:37:17;;;;;;;0.20;0.00;;;;;;;5.47;55.22;99465.38;5062299;28;20029;-71
2023/02/26 09:39:43;;;;;;;0.35;0.00;;;;;;;5.46;54.29;99482.63;5062509;28;20036;-71
2023/02/26 09:42:24;;;;;;;0.17;0.00;;;;;;;5.49;53.95;99476.38;5060122;28;20099;-71
2023/02/26 09:44:53;;;;;;;0.17;0.00;;;;;;;5.53;55.85;99486.31;5051117;28;20048;-70
2023/02/26 09:47:38;;;;;;;0.20;0.10;;;;;;;5.52;55.69;99476.09;5052135;28;20101;-70
2023/02/26 09:50:25;;;;;;;0.10;0.00;;;;;;;5.52;53.45;99487.25;5057609;28;20047;-69
2023/02/26 09:53:01;;;;;;;0.20;0.00;;;;;;;5.45;53.90;99481.00;5053429;28;20157;-70
2023/02/26 09:55:31;;;;;;;;;;;;;;;5.42;52.49;99489.03;5060889;28;20043;-71
2023/02/26 09:58:10;;;;;;;0.25;0.05;;;;;;;5.37;55.02;99475.69;5057790;28;19959;-70
2023/02/26 10:00:59;;;;;;;0.35;0.10;;;;;;;5.36;53.78;99543.81;5063232;28;20029;-71
2023/02/26 10:03:50;;;;;;;0.25;0.00;;;;;;;5.31;54.98;99478.81;4961776;28;20051;-70
2023/02/26 10:06:22;;;;;;;0.73;0.03;;;;;;;5.44;55.44;99525.88;4969002;28;20038;-70
2023/02/26 10:08:56;;;;;;;0.20;0.00;;;;;;;5.34;54.64;99543.94;4963410;28;20074;-70
2023/02/26 10:11:33;;;;;;;0.35;0.10;;;;;;;5.26;55.00;99546.34;4965425;28;20482;-71
2023/02/26 10:14:08;;;;;;;2.47;0.10;;;;;;;5.31;54.95;99535.63;4964915;28;20053;-69
2023/02/26 10:16:40;;;;;;;0.20;0.10;;;;;;;5.28;54.69;99523.81;4967163;28;20185;-71
2023/02/26 10:19:09;;;;;;;0.20;0.10;;;;;;;5.27;55.43;99513.59;4963761;28;20046;-70
2023/02/26 10:21:57;;;;;;;0.98;0.10;;;;;;;5.22;55.52;99508.00;4966526;28;20059;-71
2023/02/26 10:24:37;;;;;;;3.40;0.38;;;;;;;5.36;53.96;99548.97;4969630;28;20081;-71
2023/02/26 10:27:08;;;;;;;0.05;0.00;;;;;;;5.42;55.21;99583.78;4966387;28;20147;-70
2023/02/26 10:29:48;;;;;;;0.20;0.00;;;;;;;5.30;54.48;99541.75;4964390;28;20039;-70
2023/02/26 10:32:22;;;;;;;0.13;0.10;;;;;;;5.26;54.65;99530.03;4963772;28;20059;-69
2023/02/26 10:34:58;;;;;;;0.30;0.10;;;;;;;5.17;55.35;99562.66;4960469;28;20039;-70
2023/02/26 10:37:45;;;;;;;;;;;;;;;5.20;55.33;99535.78;4960351;28;20043;-69
2023/02/26 10:40:13;;;;;;;0.28;0.10;;;;;;;5.25;55.64;99578.28;5000766;28;20054;-69
2023/02/26 10:42:50;;;;;;;0.25;0.10;;;;;;;5.31;54.27;99540.78;5064445;28;20058;-69
2023/02/26 10:45:50;;;;;;;0.10;0.00;;;;;;;5.44;54.76;99553.47;5051829;28;20052;-69
2023/02/26 10:48:21;;;;;;;0.10;0.00;;;;;;;5.42;52.68;99530.34;5061809;28;20036;-68
2023/02/26 10:50:52;;;;;;;0.85;0.10;;;;;;;5.46;54.05;99564.47;5064054;28;20029;-69
2023/02/26 10:53:19;;;;;;;0.52;0.10;;;;;;;5.48;54.04;99562.59;5066834;28;20025;-69
2023/02/26 10:56:03;;;;;;;0.40;0.10;;;;;;;5.48;53.99;99571.16;5066238;28;20060;-69
2023/02/26 10:58:28;;;;;;;0.50;0.13;;;;;;;5.30;52.62;99542.56;5065872;28;20035;-69
2023/02/26 11:00:55;;;;;;;1.10;0.10;;;;;;;5.33;53.30;99580.22;5063521;28;20028;-70
2023/02/26 11:03:54;;;;;;;0.30;0.10;;;;;;;5.44;53.30;99603.38;5062853;28;20406;-69
2023/02/26 11:06:44;;;;;;;0.52;0.10;;;;;;;5.61;52.61;99579.47;5052276;28;20043;-69
2023/02/26 11:09:45;;;;;;;0.45;0.10;;;;;;;5.41;52.15;99598.47;5065744;28;20479;-69
2023/02/26 11:12:10;;;;;;;0.50;0.10;;;;;;;5.41;53.00;99598.47;4973950;28;20053;-69
2023/02/26 11:14:36;;;;;;;0.50;0.10;;;;;;;5.37;52.90;99586.75;4965145;28;20046;-68
2023/02/26 11:17:16;;;;;;;1.00;0.20;;;;;;;5.37;52.58;99599.69;4949186;28;20035;-72
2023/02/26 11:19:49;;;;;;;0.52;0.20;;;;;;;5.30;53.36;99570.97;4966772;28;20053;-72
2023/02/26 11:22:15;;;;;;;1.25;0.10;;;;;;;5.39;52.44;99620.22;4968083;28;20053;-71
2023/02/26 11:24:46;;;;;;;0.20;0.00;;;;;;;5.35;52.51;99614.50;4966415;28;20070;-73
2023/02/26 11:27:21;;;;;;;0.68;0.20;;;;;;;5.36;52.60;99613.53;4960498;28;20051;-72
2023/02/26 11:29:52;;;;;;;2.58;0.17;;;;;;;5.32;51.98;99625.09;4961764;28;20129;-71
2023/02/26 11:32:30;;;;;;;1.23;0.20;;;;;;;5.33;52.91;99583.63;4969347;28;20050;-73
2023/02/26 11:34:55;;;;;;;0.60;0.10;;;;;;;5.19;53.91;99609.03;4964012;28;20499;-72
2023/02/26 11:37:34;;;;;;;0.50;0.20;;;;;;;5.28;52.80;99605.63;4963634;28;20039;-73
2023/02/26 11:40:27;;;;;;;0.80;0.10;;;;;;;5.32;53.21;99604.41;4970605;28;20157;-73
2023/02/26 11:43:00;;;;;;;0.52;0.10;;;;;;;5.26;53.80;99576.53;4958507;28;20046;-72
2023/02/26 11:45:26;;;;;;;0.30;0.10;;;;;;;5.20;54.25;99579.66;4965214;28;20468;-72
2023/02/26 11:48:03;;;;;;;1.45;0.20;;;;;;;5.21;54.11;99581.28;5061755;28;20056;-71
2023/02/26 11:50:35;;;;;;;0.20;0.10;;;;;;;5.25;53.51;99580.88;5046984;28;20045;-72
2023/02/26 11:53:07;;;;;;;0.52;0.10;;;;;;;5.36;54.15;99592.06;5059905;28;20147;-71
2023/02/26 11:55:36;;;;;;;0.40;0.20;;;;;;;5.29;53.72;99600.34;5064214;28;20488;-73
2023/02/26 11:58:13;;;;;;;0.30;0.10;;;;;;;5.32;51.88;99565.69;5058626;28;20039;-72